Dades meteomassalio
Diari Summary for Abril 14, 2017 Units:  Metric    English   Both
« Previous Day
Next Day »
Diari Semanal Mensual Anual Personalitzat
  Maxima: Minima: Mijana:
Temperatura: -17.8 °C -11.7 °C -6.6 °C
Rosada: -17.8 °C -18.1 °C -15.6 °C
Humitat: Humidity % 20 % 38 %
Velocitat del vent: 0 km/h 0 km/h 9.5 km/h
Racha vent: 0 km/h - -
Vent:- - WSW
Pressio: 0 hPa 34303.6 hPa -
Pluja: 0 mm    
Historical Graphs
 
 
Tabular Data for Abril 14, 2017
Time Temperature Dew Point Pressure Wind Wind Speed Wind Gust Humidity Rainfall Rate (Hourly) solar Conditions
-17.8 °C -17.8 °C 0 hPa Calm     Humidity % 0 mm SolarRadiationWatts/m^2 W/m2 Conditions
00:01 -9 °C -14.5 °C 34395 hPa Calm     52 % 0 mm 0.0 W/m2 CLR
00:06 -9.1 °C -14.5 °C 34395 hPa Calm     52 % 0 mm 0.0 W/m2 CLR
00:11 -9.1 °C -14.6 °C 34405.1 hPa Calm     52 % 0 mm 0.0 W/m2 CLR
00:16 -9.1 °C -14.6 °C 34405.1 hPa Calm     52 % 0 mm 0.0 W/m2 CLR
00:21 -9.1 °C -14.6 °C 34405.1 hPa Calm     52 % 0 mm 0.0 W/m2 CLR
00:26 -9.1 °C -14.5 °C 34405.1 hPa Calm     52 % 0 mm 0.0 W/m2 CLR
00:31 -9.1 °C -14.5 °C 34405.1 hPa Calm     52 % 0 mm 0.0 W/m2 CLR
00:36 -9 °C -14.5 °C 34405.1 hPa Calm     52 % 0 mm 0.0 W/m2 CLR
00:41 -9 °C -14.5 °C 34405.1 hPa Calm     52 % 0 mm 0.0 W/m2 CLR
00:46 -9.1 °C -14.3 °C 34405.1 hPa Calm     53 % 0 mm 0.0 W/m2 CLR
00:51 -9.1 °C -14.4 °C 34405.1 hPa Calm     53 % 0 mm 0.0 W/m2 CLR
00:56 -9.2 °C -14.5 °C 34405.1 hPa Calm     53 % 0 mm 0.0 W/m2 CLR
01:01 -9.3 °C -14.6 °C 34405.1 hPa Calm     53 % 0 mm 0.0 W/m2 CLR
01:06 -9.3 °C -14.6 °C 34418.7 hPa Calm     53 % 0 mm 0.0 W/m2 CLR
01:11 -9.3 °C -14.6 °C 34418.7 hPa Calm     53 % 0 mm 0.0 W/m2 CLR
01:17 -9.3 °C -14.6 °C 34418.7 hPa Calm     53 % 0 mm 0.0 W/m2 CLR
01:22 -9.3 °C -14.5 °C 34418.7 hPa Calm     54 % 0 mm 0.0 W/m2 CLR
01:27 -9.5 °C -14.6 °C 34418.7 hPa Calm     54 % 0 mm 0.0 W/m2 CLR
01:32 -9.6 °C -14.5 °C 34418.7 hPa Calm     55 % 0 mm 0.0 W/m2 CLR
01:37 -9.6 °C -14.5 °C 34418.7 hPa Calm     55 % 0 mm 0.0 W/m2 CLR
01:42 -9.6 °C -14.6 °C 34418.7 hPa Calm     55 % 0 mm 0.0 W/m2 CLR
01:47 -9.7 °C -14.5 °C 34418.7 hPa Calm     56 % 0 mm 0.0 W/m2 CLR
01:52 -9.8 °C -14.6 °C 34418.7 hPa Calm     56 % 0 mm 0.0 W/m2 CLR
01:57 -9.7 °C -14.7 °C 34418.7 hPa Calm     55 % 0 mm 0.0 W/m2 CLR
02:02 -9.6 °C -14.4 °C 34418.7 hPa Calm     56 % 0 mm 0.0 W/m2 CLR
02:07 -9.7 °C -14.4 °C 34418.7 hPa Calm     57 % 0 mm 0.0 W/m2 CLR
02:12 -9.9 °C -14.4 °C 34418.7 hPa Calm     58 % 0 mm 0.0 W/m2 CLR
02:17 -10.1 °C -14.4 °C 34418.7 hPa Calm     59 % 0 mm 0.0 W/m2 CLR
02:22 -10.1 °C -14.5 °C 34418.7 hPa Calm     59 % 0 mm 0.0 W/m2 CLR
02:27 -10.1 °C -14.4 °C 34418.7 hPa Calm     59 % 0 mm 0.0 W/m2 CLR
02:32 -9.9 °C -14.6 °C 34418.7 hPa Calm     57 % 0 mm 0.0 W/m2 CLR
02:37 -9.8 °C -14.6 °C 34418.7 hPa Calm     56 % 0 mm 0.0 W/m2 CLR
02:42 -9.7 °C -14.5 °C 34418.7 hPa Calm     56 % 0 mm 0.0 W/m2 CLR
02:47 -9.7 °C -14.7 °C 34418.7 hPa Calm     55 % 0 mm 0.0 W/m2 CLR
02:52 -9.7 °C -14.6 °C 34418.7 hPa Calm     56 % 0 mm 0.0 W/m2 CLR
02:57 -9.8 °C -14.5 °C 34418.7 hPa Calm     57 % 0 mm 0.0 W/m2 CLR
03:02 -10 °C -14.6 °C 34418.7 hPa Calm     58 % 0 mm 0.0 W/m2 CLR
03:07 -10.2 °C -14.6 °C 34418.7 hPa Calm     59 % 0 mm 0.0 W/m2 CLR
03:12 -10.3 °C -14.4 °C 34418.7 hPa Calm     61 % 0 mm 0.0 W/m2 CLR
03:17 -10.5 °C -14.7 °C 34418.7 hPa Calm     60 % 0 mm 0.0 W/m2 CLR
03:22 -10.4 °C -14.7 °C 34418.7 hPa Calm     60 % 0 mm 0.0 W/m2 CLR
03:27 -10.4 °C -14.7 °C 34418.7 hPa Calm     59 % 0 mm 0.0 W/m2 CLR
03:32 -10.3 °C -14.5 °C 34405.1 hPa Calm     60 % 0 mm 0.0 W/m2 CLR
03:37 -10.4 °C -14.7 °C 34405.1 hPa Calm     59 % 0 mm 0.0 W/m2 CLR
03:38 -10.4 °C -14.7 °C 34405.1 hPa Calm     59 % 0 mm 0.0 W/m2 CLR
03:43 -10.1 °C -14.9 °C 34418.7 hPa WSW 9 km/h 9 km/h 56 % 0 mm 0.0 W/m2 CLR
03:48 -10 °C -14.8 °C 34418.7 hPa WSW 6 km/h   56 % 0 mm 0.0 W/m2 CLR
03:53 -10.1 °C -14.8 °C 34418.7 hPa Calm     56 % 0 mm 0.0 W/m2 CLR
03:58 -10.1 °C -14.8 °C 34418.7 hPa Calm     56 % 0 mm 0.0 W/m2 CLR
04:03 -9.9 °C -15.1 °C 34418.7 hPa WSW 9 km/h 9 km/h 53 % 0 mm 0.0 W/m2 CLR
04:08 -9.7 °C -15 °C 34418.7 hPa Calm     53 % 0 mm 0.0 W/m2 CLR
04:13 -9.7 °C -14.8 °C 34418.7 hPa Calm     54 % 0 mm 0.0 W/m2 CLR
04:18 -9.8 °C -15.1 °C 34418.7 hPa Calm     53 % 0 mm 0.0 W/m2 CLR
04:23 -9.9 °C -14.9 °C 34418.7 hPa Calm     54 % 0 mm 0.0 W/m2 CLR
04:28 -10.1 °C -14.9 °C 34418.7 hPa Calm     55 % 0 mm 0.0 W/m2 CLR
04:33 -10.2 °C -14.9 °C 34418.7 hPa Calm     56 % 0 mm 0.0 W/m2 CLR
04:38 -10.2 °C -14.9 °C 34405.1 hPa Calm     57 % 0 mm 0.0 W/m2 CLR
04:43 -10.4 °C -15.1 °C 34418.7 hPa Calm     57 % 0 mm 0.0 W/m2 CLR
04:48 -10.6 °C -14.9 °C 34418.7 hPa Calm     59 % 0 mm 0.0 W/m2 CLR
04:53 -10.8 °C -14.8 °C 34418.7 hPa Calm     61 % 0 mm 0.0 W/m2 CLR
04:58 -10.9 °C -15 °C 34418.7 hPa Calm     61 % 0 mm 0.0 W/m2 CLR
05:03 -11 °C -15.1 °C 34418.7 hPa Calm     61 % 0 mm 0.0 W/m2 CLR
05:08 -11.1 °C -15.1 °C 34418.7 hPa Calm     61 % 0 mm 0.0 W/m2 CLR
05:13 -11.1 °C -15.1 °C 34418.7 hPa Calm     61 % 0 mm 0.0 W/m2 CLR
05:18 -11.1 °C -14.9 °C 34405.1 hPa Calm     62 % 0 mm 0.0 W/m2 CLR
05:23 -11.1 °C -15.1 °C 34405.1 hPa Calm     62 % 0 mm 0.0 W/m2 CLR
05:28 -11.2 °C -15.1 °C 34405.1 hPa Calm     62 % 0 mm 0.0 W/m2 CLR
05:33 -11.2 °C -15.4 °C 34418.7 hPa Calm     60 % 0 mm 0.0 W/m2 CLR
05:38 -11.1 °C -15.7 °C 34405.1 hPa Calm     57 % 0 mm 0.0 W/m2 CLR
05:43 -11 °C -16.2 °C 34405.1 hPa West 3.1 km/h 3.1 km/h 53 % 0 mm 0.0 W/m2 CLR
05:48 -10.4 °C -16.3 °C 34405.1 hPa West 20.9 km/h 20.9 km/h 49 % 0 mm 0.0 W/m2 CLR
05:53 -9.8 °C -16.3 °C 34418.7 hPa WSW 15 km/h 15 km/h 45 % 0 mm 0.0 W/m2 CLR
05:58 -9.7 °C -15.9 °C 34418.7 hPa WSW 3.1 km/h 3.1 km/h 47 % 0 mm 0.0 W/m2 CLR
06:03 -9.8 °C -16.2 °C 34418.7 hPa West 12.9 km/h 12.9 km/h 46 % 0 mm 0.0 W/m2 CLR
06:08 -9.9 °C -16 °C 34418.7 hPa WSW 9 km/h 9 km/h 48 % 0 mm 0.0 W/m2 CLR
06:13 -10 °C -16 °C 34418.7 hPa West 9 km/h 9 km/h 48 % 0 mm 0.0 W/m2 CLR
06:18 -10.1 °C -15.9 °C 34418.7 hPa West 12.9 km/h 12.9 km/h 49 % 0 mm 0.0 W/m2 CLR
06:23 -10.1 °C -16 °C 34418.7 hPa SW 2.6 km/h 2.6 km/h 49 % 0 mm 0.0 W/m2 CLR
06:28 -10.4 °C -16.2 °C 34418.7 hPa WSW 9 km/h 9 km/h 49 % 0 mm 0.0 W/m2 CLR
06:33 -10.3 °C -16.5 °C 34418.7 hPa WSW 11.9 km/h 11.9 km/h 47 % 0 mm 0.0 W/m2 CLR
06:38 -10.3 °C -16.6 °C 34405.1 hPa WSW 12.9 km/h 12.9 km/h 46 % 0 mm 0.0 W/m2 CLR
06:43 -10.1 °C -16.6 °C 34418.7 hPa WSW 20.9 km/h 20.9 km/h 45 % 0 mm 0.0 W/m2 CLR
06:48 -9.9 °C -16.6 °C 34418.7 hPa WSW 9 km/h 9 km/h 44 % 0 mm 0.0 W/m2 CLR
06:53 -9.9 °C -16.4 °C 34418.7 hPa SW 9 km/h 9 km/h 45 % 0 mm 0.0 W/m2 CLR
06:58 -10.1 °C -15.8 °C 34418.7 hPa Calm     50 % 0 mm 0.0 W/m2 CLR
07:03 -10.5 °C -15.9 °C 34418.7 hPa WSW 6 km/h   52 % 0 mm 0.0 W/m2 CLR
07:08 -10.8 °C -16 °C 34418.7 hPa Calm     53 % 0 mm 0.0 W/m2 CLR
07:13 -11.1 °C -15.8 °C 34418.7 hPa Calm     56 % 0 mm 0.0 W/m2 OVC
07:18 -11.3 °C -15.8 °C 34418.7 hPa Calm     58 % 0 mm 0.0 W/m2 OVC
07:23 -11.5 °C -16.1 °C 34418.7 hPa Calm     57 % 0 mm 0.0 W/m2 OVC
07:28 -11.6 °C -15.8 °C 34418.7 hPa Calm     59 % 0 mm 7.0 W/m2 BKN
07:33 -11.6 °C -16.2 °C 34418.7 hPa Calm     57 % 0 mm 12.0 W/m2 BKN
07:38 -11.6 °C -15.9 °C 34418.7 hPa Calm     59 % 0 mm 18.0 W/m2 BKN
07:43 -11.7 °C -16.1 °C 34418.7 hPa Calm     58 % 0 mm 21.0 W/m2 BKN
07:48 -11.7 °C -16.1 °C 34418.7 hPa Calm     58 % 0 mm 25.0 W/m2 BKN
07:53 -11.6 °C -15.9 °C 34428.8 hPa Calm     59 % 0 mm 32.0 W/m2 BKN
07:58 -11.6 °C -16.1 °C 34428.8 hPa Calm     58 % 0 mm 40.0 W/m2 BKN
08:03 -11.6 °C -15.9 °C 34428.8 hPa Calm     59 % 0 mm 49.0 W/m2 SCT
08:08 -11.5 °C -15.9 °C 34428.8 hPa Calm     58 % 0 mm 58.0 W/m2 SCT
08:13 -11.4 °C -15.9 °C 34428.8 hPa Calm     57 % 0 mm 70.0 W/m2 FEW
08:18 -11.2 °C -15.9 °C 34428.8 hPa Calm     56 % 0 mm 77.0 W/m2 FEW
08:23 -11.1 °C -15.5 °C 34428.8 hPa Calm     58 % 0 mm 102.0 W/m2 FEW
08:28 -10.8 °C -15.7 °C 34428.8 hPa Calm     55 % 0 mm 116.0 W/m2 CLR
08:33 -10.6 °C -15.7 °C 34428.8 hPa Calm     54 % 0 mm 134.0 W/m2 CLR
08:38 -10.4 °C -15.7 °C 34428.8 hPa Calm     53 % 0 mm 151.0 W/m2 CLR
08:43 -10.3 °C -15.5 °C 34428.8 hPa Calm     53 % 0 mm 167.0 W/m2 CLR
08:48 -10.1 °C -15.3 °C 34442.4 hPa Calm     53 % 0 mm 190.0 W/m2 CLR
08:53 -9.8 °C -15.1 °C 34428.8 hPa Calm     53 % 0 mm 206.0 W/m2 CLR
08:58 -9.6 °C -15.3 °C 34428.8 hPa Calm     50 % 0 mm 90.0 W/m2 CLR
09:03 -9.4 °C -14.8 °C 34428.8 hPa Calm     52 % 0 mm 172.0 W/m2 CLR
09:08 -9.1 °C -14.7 °C 34428.8 hPa Calm     51 % 0 mm 255.0 W/m2 CLR
09:13 -8.7 °C -15 °C 34428.8 hPa West 9 km/h   47 % 0 mm 274.0 W/m2 CLR
09:19 -8.1 °C -16.8 °C 34428.8 hPa WNW 41.7 km/h 41.7 km/h 35 % 0 mm 297.0 W/m2 CLR
09:24 -7.2 °C -17.2 °C 34428.8 hPa West 32.8 km/h 32.8 km/h 30 % 0 mm 322.0 W/m2 CLR
09:29 -6.8 °C -17.2 °C 34428.8 hPa WNW 35.7 km/h 35.7 km/h 29 % 0 mm 353.0 W/m2 CLR
09:34 -6.7 °C -17.3 °C 34418.7 hPa WNW 41.7 km/h 41.7 km/h 28 % 0 mm 381.0 W/m2 CLR
09:39 -6.5 °C -17.1 °C 34428.8 hPa WNW 29.8 km/h 29.8 km/h 28 % 0 mm 306.0 W/m2 CLR
09:44 -6.5 °C -17.4 °C 34428.8 hPa WNW 47.6 km/h 47.6 km/h 27 % 0 mm 350.0 W/m2 CLR
09:49 -6.5 °C -17.1 °C 34418.7 hPa West 38.8 km/h 38.8 km/h 28 % 0 mm 357.0 W/m2 CLR
09:54 -6.5 °C -17.4 °C 34418.7 hPa WNW 23.8 km/h 23.8 km/h 27 % 0 mm 272.0 W/m2 CLR
09:59 -6.5 °C -17.4 °C 34418.7 hPa WNW 38.8 km/h 38.8 km/h 27 % 0 mm 357.0 W/m2 CLR
10:04 -6.4 °C -17.3 °C 34418.7 hPa West 32.8 km/h 32.8 km/h 27 % 0 mm 397.0 W/m2 CLR
10:09 -6.3 °C -17.6 °C 34418.7 hPa WNW 28.5 km/h 28.5 km/h 26 % 0 mm 418.0 W/m2 CLR
10:14 -6.2 °C -16.9 °C 34418.7 hPa NW 29.8 km/h 29.8 km/h 28 % 0 mm 410.0 W/m2 CLR
10:19 -6.2 °C -17.4 °C 34428.8 hPa WNW 29.8 km/h 29.8 km/h 26 % 0 mm 457.0 W/m2 CLR
10:24 -6.1 °C -17.7 °C 34428.8 hPa West 38.8 km/h 38.8 km/h 25 % 0 mm 461.0 W/m2 CLR
10:29 -6 °C -17.3 °C 34428.8 hPa West 29.8 km/h 29.8 km/h 26 % 0 mm 482.0 W/m2 CLR
10:34 -5.9 °C -17.4 °C 34428.8 hPa WNW 38.8 km/h 38.8 km/h 25 % 0 mm 401.0 W/m2 CLR
10:39 -5.9 °C -17.8 °C 34428.8 hPa NW 38.8 km/h 38.8 km/h 24 % 0 mm 397.0 W/m2 CLR
10:44 -5.9 °C -17.8 °C 34428.8 hPa NNW 23.8 km/h 23.8 km/h 24 % 0 mm 388.0 W/m2 CLR
10:49 -5.8 °C -17.7 °C 34428.8 hPa NW 36.2 km/h 36.2 km/h 24 % 0 mm 478.0 W/m2 CLR
10:54 -5.8 °C -18.1 °C 34428.8 hPa NW 25.9 km/h 25.9 km/h 23 % 0 mm 436.0 W/m2 CLR
10:59 -5.8 °C -17.7 °C 34428.8 hPa WNW 35.7 km/h 35.7 km/h 24 % 0 mm 552.0 W/m2 CLR
11:04 -5.7 °C -17.6 °C 34428.8 hPa NW 36.2 km/h 36.2 km/h 24 % 0 mm 388.0 W/m2 CLR
11:09 -5.7 °C -17.7 °C 34428.8 hPa WNW 23.3 km/h 23.3 km/h 24 % 0 mm 455.0 W/m2 CLR
11:14 -5.7 °C -17.9 °C 34428.8 hPa WNW 11.9 km/h 11.9 km/h 23 % 0 mm 401.0 W/m2 CLR
11:19 -5.7 °C -17.3 °C 34428.8 hPa WNW 11.9 km/h 11.9 km/h 25 % 0 mm 578.0 W/m2 CLR
11:24 -5.5 °C -17.2 °C 34428.8 hPa WNW 29.8 km/h 29.8 km/h 25 % 0 mm 550.0 W/m2 CLR
11:29 -5.4 °C -16.5 °C 34428.8 hPa Calm     27 % 0 mm 468.0 W/m2 CLR
11:34 -5.4 °C -16.7 °C 34428.8 hPa NNW 26.9 km/h 26.9 km/h 26 % 0 mm 578.0 W/m2 CLR
11:39 -5.4 °C -17.1 °C 34428.8 hPa NNW 26.9 km/h 26.9 km/h 25 % 0 mm 568.0 W/m2 CLR
11:44 -5.3 °C -16.7 °C 34428.8 hPa WNW 9 km/h 9 km/h 26 % 0 mm 531.0 W/m2 CLR
11:49 -5.2 °C -16.8 °C 34428.8 hPa WNW 26.9 km/h 26.9 km/h 25 % 0 mm 626.0 W/m2 CLR
11:54 -5.1 °C -17.1 °C 34428.8 hPa NNW 29.8 km/h 29.8 km/h 24 % 0 mm 622.0 W/m2 CLR
11:59 -4.9 °C -17 °C 34428.8 hPa NNW 10.3 km/h 10.3 km/h 24 % 0 mm 745.0 W/m2 CLR
12:04 -4.8 °C -17.3 °C 34418.7 hPa WNW 29.8 km/h 29.8 km/h 23 % 0 mm 686.0 W/m2 CLR
12:09 -4.8 °C -17.2 °C 34418.7 hPa NW 29.8 km/h 29.8 km/h 23 % 0 mm 585.0 W/m2 CLR
12:14 -4.8 °C -16.8 °C 34418.7 hPa NW 29.8 km/h 29.8 km/h 24 % 0 mm 650.0 W/m2 CLR
12:19 -4.7 °C -17.1 °C 34418.7 hPa WNW 9 km/h 9 km/h 23 % 0 mm 721.0 W/m2 CLR
12:24 -4.5 °C -17.3 °C 34418.7 hPa NW 28.5 km/h 28.5 km/h 22 % 0 mm 729.0 W/m2 CLR
12:29 -4.4 °C -16.9 °C 34418.7 hPa WNW 31.1 km/h 31.1 km/h 23 % 0 mm 793.0 W/m2 CLR
12:34 -4.4 °C -17.6 °C 34418.7 hPa NW 29.8 km/h 29.8 km/h 21 % 0 mm 724.0 W/m2 CLR
12:39 -4.3 °C -16.4 °C 34418.7 hPa WNW 12.9 km/h 12.9 km/h 24 % 0 mm 768.0 W/m2 CLR
12:44 -4.1 °C -17 °C 34418.7 hPa NW 11.9 km/h 11.9 km/h 22 % 0 mm 649.0 W/m2 CLR
12:49 -4.1 °C -17.3 °C 34418.7 hPa NW 25.9 km/h 25.9 km/h 21 % 0 mm 675.0 W/m2 CLR
12:54 -4.2 °C -17.4 °C 34418.7 hPa NNW 20.9 km/h 20.9 km/h 21 % 0 mm 721.0 W/m2 CLR
12:59 -4.2 °C -17 °C 34418.7 hPa WNW 15 km/h 15 km/h 22 % 0 mm 575.0 W/m2 CLR
13:04 -4.1 °C -17 °C 34405.1 hPa NNW 32.8 km/h 32.8 km/h 22 % 0 mm 766.0 W/m2 CLR
13:09 -4.1 °C -17.3 °C 34405.1 hPa WNW 23.8 km/h 23.8 km/h 21 % 0 mm 795.0 W/m2 CLR
13:14 -3.9 °C -17.2 °C 34405.1 hPa NW 29.8 km/h 29.8 km/h 21 % 0 mm 698.0 W/m2 CLR
13:19 -4 °C -16.8 °C 34405.1 hPa NW 32.8 km/h 32.8 km/h 22 % 0 mm 450.0 W/m2 CLR
13:24 -4 °C -16.8 °C 34405.1 hPa NNW 6 km/h 6 km/h 22 % 0 mm 536.0 W/m2 CLR
13:29 -4 °C -16.8 °C 34405.1 hPa NW 26.9 km/h 26.9 km/h 22 % 0 mm 650.0 W/m2 CLR
13:34 -4 °C -16.9 °C 34405.1 hPa NNW 11.9 km/h 11.9 km/h 22 % 0 mm 294.0 W/m2 CLR
13:39 -3.9 °C -16.5 °C 34405.1 hPa WNW 9 km/h 9 km/h 23 % 0 mm 731.0 W/m2 CLR
13:44 -3.7 °C -16.6 °C 34405.1 hPa NNW 9 km/h 9 km/h 22 % 0 mm 939.0 W/m2 CLR
13:49 -3.6 °C -16.5 °C 34395 hPa North 20.9 km/h 20.9 km/h 22 % 0 mm 476.0 W/m2 CLR
13:54 -3.5 °C -16.5 °C 34395 hPa NW 20.9 km/h 20.9 km/h 22 % 0 mm 879.0 W/m2 CLR
13:59 -3.4 °C -16.4 °C 34395 hPa WNW 23.8 km/h 23.8 km/h 22 % 0 mm 758.0 W/m2 CLR
14:04 -3.4 °C -16.8 °C 34395 hPa West 9 km/h 9 km/h 21 % 0 mm 758.0 W/m2 CLR
14:10 -3.3 °C -16.3 °C 34395 hPa WNW 9 km/h 12.9 km/h 22 % 0 mm 831.0 W/m2 CLR
14:15 -3.2 °C -16.2 °C 34395 hPa NW 28.5 km/h 28.5 km/h 22 % 0 mm 874.0 W/m2 CLR
14:20 -3.1 °C -16.9 °C 34384.8 hPa Calm     20 % 0 mm 823.0 W/m2 CLR
14:25 -2.9 °C -16 °C 34384.8 hPa North 15 km/h 15 km/h 22 % 0 mm 846.0 W/m2 CLR
14:30 -2.8 °C -15.9 °C 34384.8 hPa NNW 23.8 km/h 23.8 km/h 22 % 0 mm 744.0 W/m2 CLR
14:35 -2.8 °C -15.9 °C 34384.8 hPa NW 10.3 km/h 10.3 km/h 22 % 0 mm 842.0 W/m2 CLR
14:40 -2.7 °C -15.8 °C 34384.8 hPa West 9 km/h   22 % 0 mm 868.0 W/m2 CLR
14:45 -2.6 °C -16.1 °C 34384.8 hPa North 6 km/h 6 km/h 21 % 0 mm 809.0 W/m2 CLR
14:50 -2.5 °C -15.6 °C 34371.3 hPa Calm     22 % 0 mm 840.0 W/m2 CLR
14:55 -2.3 °C -15.8 °C 34371.3 hPa NW 20.9 km/h 20.9 km/h 21 % 0 mm 795.0 W/m2 CLR
15:00 -2.4 °C -15.2 °C 34371.3 hPa West 6 km/h 6 km/h 23 % 0 mm 772.0 W/m2 CLR
15:05 -2.4 °C -15.6 °C 34361.1 hPa NNW 7.7 km/h 7.7 km/h 22 % 0 mm 791.0 W/m2 CLR
15:10 -2.4 °C -15.6 °C 34361.1 hPa West 20.9 km/h 20.9 km/h 22 % 0 mm 809.0 W/m2 CLR
15:15 -2.4 °C -15.6 °C 34361.1 hPa West 20.9 km/h 20.9 km/h 22 % 0 mm 802.0 W/m2 CLR
15:20 -2.3 °C -15.1 °C 34361.1 hPa WNW 15.6 km/h 15.6 km/h 23 % 0 mm 819.0 W/m2 CLR
15:25 -2.3 °C -15.9 °C 34361.1 hPa NW 9 km/h   21 % 0 mm 779.0 W/m2 CLR
15:30 -2.3 °C -15.2 °C 34361.1 hPa West 12.9 km/h 12.9 km/h 23 % 0 mm 798.0 W/m2 CLR
15:35 -2.3 °C -15.4 °C 34347.6 hPa West 11.9 km/h 11.9 km/h 22 % 0 mm 791.0 W/m2 CLR
15:40 -2.2 °C -15.4 °C 34347.6 hPa NW 18.2 km/h 18.2 km/h 22 % 0 mm 782.0 W/m2 CLR
15:45 -2.2 °C -15.7 °C 34347.6 hPa NNE 20.9 km/h 20.9 km/h 21 % 0 mm 765.0 W/m2 CLR
15:50 -2.2 °C -15.8 °C 34337.4 hPa NNE 15 km/h 15 km/h 21 % 0 mm 742.0 W/m2 CLR
15:55 -2.2 °C -15.3 °C 34337.4 hPa NE 17.9 km/h 17.9 km/h 22 % 0 mm 756.0 W/m2 CLR
16:00 -2.1 °C -15.7 °C 34337.4 hPa NE 15.6 km/h 15.6 km/h 21 % 0 mm 745.0 W/m2 CLR
16:05 -1.9 °C -15.2 °C 34337.4 hPa NNE 20.8 km/h 20.8 km/h 22 % 0 mm 735.0 W/m2 CLR
16:10 -2 °C -15.6 °C 34337.4 hPa North 20.9 km/h 20.9 km/h 21 % 0 mm 671.0 W/m2 CLR
16:15 -2.2 °C -15.3 °C 34337.4 hPa NNE 9 km/h 9 km/h 22 % 0 mm 694.0 W/m2 CLR
16:20 -2.1 °C -15.3 °C 34327.3 hPa ENE 9 km/h 9 km/h 22 % 0 mm 705.0 W/m2 CLR
16:25 -2.1 °C -15.7 °C 34327.3 hPa NNE 17.9 km/h 17.9 km/h 21 % 0 mm 698.0 W/m2 CLR
16:30 -2.1 °C -15.6 °C 34327.3 hPa NNW 20.9 km/h 20.9 km/h 21 % 0 mm 684.0 W/m2 CLR
16:35 -2.1 °C -15.2 °C 34327.3 hPa Calm     22 % 0 mm 668.0 W/m2 CLR
16:40 -1.9 °C -15.5 °C 34327.3 hPa NE 12.9 km/h 12.9 km/h 21 % 0 mm 615.0 W/m2 CLR
16:45 -1.8 °C -15.4 °C 34327.3 hPa NNW 20.8 km/h 20.8 km/h 21 % 0 mm 615.0 W/m2 CLR
16:50 -1.9 °C -15.5 °C 34313.7 hPa North 6 km/h 6 km/h 21 % 0 mm 624.0 W/m2 CLR
16:55 -2 °C -15.6 °C 34313.7 hPa North 3.1 km/h   21 % 0 mm 606.0 W/m2 CLR
17:00 -1.9 °C -15.5 °C 34313.7 hPa NNE 29.8 km/h 29.8 km/h 21 % 0 mm 592.0 W/m2 CLR
17:05 -1.9 °C -15.5 °C 34313.7 hPa NNE 29.8 km/h 29.8 km/h 21 % 0 mm 582.0 W/m2 CLR
17:10 -2 °C -15.2 °C 34313.7 hPa NNW 23.8 km/h 23.8 km/h 22 % 0 mm 584.0 W/m2 CLR
17:15 -2 °C -15.2 °C 34313.7 hPa NNE 3.1 km/h 3.1 km/h 22 % 0 mm 561.0 W/m2 CLR
17:20 -1.9 °C -15.5 °C 34313.7 hPa NW 23.8 km/h 23.8 km/h 21 % 0 mm 547.0 W/m2 CLR
17:25 -2 °C -15.6 °C 34313.7 hPa NW 29.8 km/h 29.8 km/h 21 % 0 mm 524.0 W/m2 CLR
17:30 -2 °C -15.6 °C 34303.6 hPa NNE 9 km/h 9 km/h 21 % 0 mm 522.0 W/m2 CLR
17:35 -1.9 °C -15.5 °C 34303.6 hPa North 9 km/h 9 km/h 21 % 0 mm 510.0 W/m2 CLR
17:40 -1.9 °C -15.5 °C 34303.6 hPa North 9 km/h 9 km/h 21 % 0 mm 494.0 W/m2 CLR
17:45 -1.9 °C -15.5 °C 34303.6 hPa North 32.8 km/h 32.8 km/h 21 % 0 mm 464.0 W/m2 CLR
17:50 -2 °C -15.2 °C 34303.6 hPa North 23.8 km/h 23.8 km/h 22 % 0 mm 436.0 W/m2 CLR
17:55 -2 °C -15.6 °C 34303.6 hPa North 29.8 km/h 29.8 km/h 21 % 0 mm 443.0 W/m2 CLR
18:00 -2 °C -15.6 °C 34303.6 hPa NNW 29.8 km/h 29.8 km/h 21 % 0 mm 424.0 W/m2 CLR
18:05 -2.1 °C -16 °C 34303.6 hPa NNW 20.9 km/h 20.9 km/h 20 % 0 mm 401.0 W/m2 CLR
18:10 -2.1 °C -15.7 °C 34303.6 hPa North 6 km/h 6 km/h 21 % 0 mm 367.0 W/m2 CLR
18:15 -2.1 °C -15.7 °C 34303.6 hPa NNE 23.3 km/h 23.3 km/h 21 % 0 mm 383.0 W/m2 CLR
18:21 -2.1 °C -16 °C 34303.6 hPa NNE 23.8 km/h 23.8 km/h 20 % 0 mm 359.0 W/m2 CLR
18:26 -2.1 °C -15.7 °C 34303.6 hPa NNE 6 km/h 6 km/h 21 % 0 mm 357.0 W/m2 CLR
18:31 -2.1 °C -15.7 °C 34303.6 hPa NNW 20.9 km/h 20.9 km/h 21 % 0 mm 327.0 W/m2 CLR
18:36 -2.1 °C -15.7 °C 34303.6 hPa ENE 7.7 km/h 7.7 km/h 21 % 0 mm 313.0 W/m2 CLR
18:41 -2.1 °C -16 °C 34303.6 hPa NE 23.8 km/h 23.8 km/h 20 % 0 mm 299.0 W/m2 CLR
18:46 -2.1 °C -15.7 °C 34303.6 hPa NNE 20.9 km/h 20.9 km/h 21 % 0 mm 279.0 W/m2 CLR
18:51 -2.2 °C -15.7 °C 34303.6 hPa North 6 km/h 6 km/h 21 % 0 mm 251.0 W/m2 CLR
18:56 -2.2 °C -15.7 °C 34303.6 hPa NW 15 km/h 15 km/h 21 % 0 mm 232.0 W/m2 CLR
19:01 -2.3 °C -15.8 °C 34303.6 hPa Calm     21 % 0 mm 207.0 W/m2 CLR
19:06 -2.2 °C -15.4 °C 34303.6 hPa Calm     22 % 0 mm 197.0 W/m2 CLR
19:11 -2.2 °C -15.7 °C 34303.6 hPa Calm     21 % 0 mm 91.0 W/m2 CLR
19:16 -2.3 °C -15.8 °C 34303.6 hPa NNE 6 km/h 6 km/h 21 % 0 mm 109.0 W/m2 CLR
19:21 -2.4 °C -15.5 °C 34303.6 hPa Calm     22 % 0 mm 185.0 W/m2 CLR
19:26 -2.4 °C -15.9 °C 34303.6 hPa Calm     21 % 0 mm 188.0 W/m2 CLR
19:31 -2.4 °C -15.6 °C 34303.6 hPa Calm     22 % 0 mm 165.0 W/m2 CLR
19:36 -2.4 °C -15.6 °C 34303.6 hPa Calm     22 % 0 mm 90.0 W/m2 CLR
19:41 -2.5 °C -16 °C 34303.6 hPa Calm     21 % 0 mm 76.0 W/m2 CLR
19:42 -2.5 °C -16 °C 34303.6 hPa Calm     21 % 0 mm 76.0 W/m2 FEW
19:47 -2.5 °C -15.3 °C 34303.6 hPa Calm     23 % 0 mm 72.0 W/m2 FEW
19:52 -2.6 °C -15.3 °C 34303.6 hPa Calm     23 % 0 mm 79.0 W/m2 FEW
19:57 -2.6 °C -15.7 °C 34303.6 hPa Calm     22 % 0 mm 63.0 W/m2 SCT
20:02 -2.6 °C -15.3 °C 34303.6 hPa Calm     23 % 0 mm 56.0 W/m2 SCT
20:07 -2.7 °C -15.1 °C 34303.6 hPa Calm     24 % 0 mm 49.0 W/m2 SCT
20:12 -3 °C -15.1 °C 34303.6 hPa SE 15 km/h 15 km/h 25 % 0 mm 37.0 W/m2 BKN
20:17 -3.2 °C -14.9 °C 34303.6 hPa SSE 9 km/h 9 km/h 26 % 0 mm 23.0 W/m2 BKN
20:22 -3.4 °C -14.7 °C 34303.6 hPa SE 10.3 km/h 10.3 km/h 27 % 0 mm 21.0 W/m2 BKN
20:27 -3.4 °C -14.8 °C 34303.6 hPa Calm     27 % 0 mm 12.0 W/m2 BKN
20:32 -3.6 °C -14.6 °C 34303.6 hPa Calm     28 % 0 mm 7.0 W/m2 BKN
20:37 -3.7 °C -14.4 °C 34313.7 hPa SSE 9 km/h 9 km/h 29 % 0 mm 0.0 W/m2 OVC
20:42 -3.8 °C -14.3 °C 34313.7 hPa Calm     30 % 0 mm 0.0 W/m2 OVC
20:47 -4 °C -14.2 °C 34313.7 hPa Calm     31 % 0 mm 0.0 W/m2 OVC
20:52 -4.3 °C -14.1 °C 34313.7 hPa Calm     32 % 0 mm 0.0 W/m2 CLR
20:57 -4.5 °C -14.1 °C 34327.3 hPa Calm     33 % 0 mm 0.0 W/m2 CLR
21:02 -4.8 °C -14.3 °C 34327.3 hPa Calm     33 % 0 mm 0.0 W/m2 CLR
21:07 -4.9 °C -14.2 °C 34327.3 hPa Calm     34 % 0 mm 0.0 W/m2 CLR
21:12 -5 °C -14.3 °C 34327.3 hPa Calm     34 % 0 mm 0.0 W/m2 CLR
21:17 -5.1 °C -14.3 °C 34337.4 hPa Calm     34 % 0 mm 0.0 W/m2 CLR
21:22 -5.2 °C -14.4 °C 34337.4 hPa Calm     34 % 0 mm 0.0 W/m2 CLR
21:27 -5.2 °C -14.5 °C 34337.4 hPa Calm     34 % 0 mm 0.0 W/m2 CLR
21:32 -5.3 °C -14.3 °C 34337.4 hPa Calm     35 % 0 mm 0.0 W/m2 CLR
21:37 -5.5 °C -14.1 °C 34347.6 hPa Calm     37 % 0 mm 0.0 W/m2 CLR
21:42 -5.8 °C -14.3 °C 34347.6 hPa Calm     37 % 0 mm 0.0 W/m2 CLR
21:47 -6.1 °C -14.1 °C 34347.6 hPa Calm     39 % 0 mm 0.0 W/m2 CLR
21:52 -6.3 °C -13.9 °C 34347.6 hPa Calm     41 % 0 mm 0.0 W/m2 CLR
21:58 -6.6 °C -14.2 °C 34361.1 hPa West 6 km/h 6 km/h 41 % 0 mm 0.0 W/m2 CLR
22:03 -6.8 °C -14.2 °C 34361.1 hPa Calm     42 % 0 mm 0.0 W/m2 CLR
22:08 -7 °C -14.1 °C 34361.1 hPa Calm     43 % 0 mm 0.0 W/m2 CLR
22:13 -7.1 °C -13.9 °C 34371.3 hPa Calm     45 % 0 mm 0.0 W/m2 CLR
22:18 -7.4 °C -14.2 °C 34371.3 hPa Calm     45 % 0 mm 0.0 W/m2 CLR
22:23 -7.5 °C -14.3 °C 34371.3 hPa Calm     45 % 0 mm 0.0 W/m2 CLR
22:28 -7.7 °C -14.3 °C 34384.8 hPa Calm     46 % 0 mm 0.0 W/m2 CLR
22:33 -7.7 °C -14.1 °C 34371.3 hPa SW 18.2 km/h 18.2 km/h 47 % 0 mm 0.0 W/m2 CLR
22:38 -7.9 °C -14.3 °C 34371.3 hPa Calm   0.8 km/h 47 % 0 mm 0.0 W/m2 CLR
22:43 -7.6 °C -14.1 °C 34371.3 hPa NW 9 km/h   46 % 0 mm 0.0 W/m2 CLR
22:48 -7.4 °C -14.3 °C 34384.8 hPa SW 9 km/h 9 km/h 44 % 0 mm 0.0 W/m2 CLR
22:53 -7.2 °C -14.2 °C 34384.8 hPa Calm     44 % 0 mm 0.0 W/m2 CLR
22:58 -7.3 °C -14.1 °C 34384.8 hPa Calm     45 % 0 mm 0.0 W/m2 CLR
23:03 -7.4 °C -14 °C 34384.8 hPa Calm     46 % 0 mm 0.0 W/m2 CLR
23:08 -7.6 °C -14.1 °C 34384.8 hPa Calm     46 % 0 mm 0.0 W/m2 CLR
23:13 -7.6 °C -14.2 °C 34384.8 hPa WSW 5.1 km/h 5.1 km/h 46 % 0 mm 0.0 W/m2 CLR
23:18 -7.6 °C -14.3 °C 34384.8 hPa SW 3.1 km/h   45 % 0 mm 0.0 W/m2 CLR
23:23 -7.6 °C -14.3 °C 34384.8 hPa Calm     45 % 0 mm 0.0 W/m2 CLR
23:28 -7.6 °C -14.4 °C 34384.8 hPa Calm     45 % 0 mm 0.0 W/m2 CLR
23:33 -7.7 °C -14.4 °C 34384.8 hPa Calm   0.8 km/h 45 % 0 mm 0.0 W/m2 CLR
23:38 -7.8 °C -14.3 °C 34384.8 hPa WSW 7.7 km/h 7.7 km/h 46 % 0 mm 0.0 W/m2 CLR
23:43 -7.9 °C -14.3 °C 34384.8 hPa WSW 9 km/h 9 km/h 47 % 0 mm 0.0 W/m2 CLR
23:48 -7.8 °C -14.5 °C 34384.8 hPa WSW 15 km/h 15 km/h 45 % 0 mm 0.0 W/m2 CLR
23:53 -7.4 °C -14.2 °C 34395 hPa Calm     45 % 0 mm 0.0 W/m2 CLR
23:58 -7.7 °C -14.4 °C 34395 hPa WSW 9 km/h 9 km/h 45 % 0 mm 0.0 W/m2 CLR
Lo Temps de Massalio
Compliments of Weather Underground - 1.25 mb